sensor_id;sensor_type;location;lat;lon;timestamp;pressure;altitude;pressure_sealevel;temperature;humidity
12785;BME280;6456;42.680;23.260;2023-03-26T00:01:16;94227.88;;;10.89;92.11
12785;BME280;6456;42.680;23.260;2023-03-26T00:03:43;94215.75;;;10.88;92.71
12785;BME280;6456;42.680;23.260;2023-03-26T00:06:15;94218.59;;;10.87;93.17
12785;BME280;6456;42.680;23.260;2023-03-26T00:08:44;94210.72;;;10.87;92.95
12785;BME280;6456;42.680;23.260;2023-03-26T00:11:13;94173.97;;;10.62;92.88
12785;BME280;6456;42.680;23.260;2023-03-26T00:13:41;94177.56;;;10.68;93.18
12785;BME280;6456;42.680;23.260;2023-03-26T00:16:10;94174.72;;;10.69;92.94
12785;BME280;6456;42.680;23.260;2023-03-26T00:18:38;94201.03;;;10.99;92.65
12785;BME280;6456;42.680;23.260;2023-03-26T00:21:07;94160.44;;;10.77;92.48
12785;BME280;6456;42.680;23.260;2023-03-26T00:23:35;94141.16;;;10.65;92.08
12785;BME280;6456;42.680;23.260;2023-03-26T00:26:04;94150.69;;;10.77;91.86
12785;BME280;6456;42.680;23.260;2023-03-26T00:28:35;94183.16;;;11.01;91.08
12785;BME280;6456;42.680;23.260;2023-03-26T00:31:06;94181.53;;;11.00;90.52
12785;BME280;6456;42.680;23.260;2023-03-26T00:33:34;94176.75;;;10.97;90.56
12785;BME280;6456;42.680;23.260;2023-03-26T00:36:04;94174.69;;;10.99;90.57
12785;BME280;6456;42.680;23.260;2023-03-26T00:38:32;94121.91;;;10.53;90.65
12785;BME280;6456;42.680;23.260;2023-03-26T00:41:04;94154.00;;;10.73;91.06
12785;BME280;6456;42.680;23.260;2023-03-26T00:43:33;94183.03;;;10.96;91.18
12785;BME280;6456;42.680;23.260;2023-03-26T00:46:00;94146.53;;;10.58;90.83
12785;BME280;6456;42.680;23.260;2023-03-26T00:48:28;94176.94;;;10.84;90.31
12785;BME280;6456;42.680;23.260;2023-03-26T00:50:56;94163.16;;;10.70;89.92
12785;BME280;6456;42.680;23.260;2023-03-26T00:53:23;94122.81;;;10.47;89.44
12785;BME280;6456;42.680;23.260;2023-03-26T00:55:50;94182.09;;;10.90;89.12
12785;BME280;6456;42.680;23.260;2023-03-26T00:58:17;94184.03;;;10.95;89.32
12785;BME280;6456;42.680;23.260;2023-03-26T01:00:50;94136.38;;;10.62;89.20
12785;BME280;6456;42.680;23.260;2023-03-26T01:03:18;94185.22;;;10.99;89.23
12785;BME280;6456;42.680;23.260;2023-03-26T01:05:48;94183.41;;;11.00;89.47
12785;BME280;6456;42.680;23.260;2023-03-26T01:08:23;94116.66;;;10.53;88.96
12785;BME280;6456;42.680;23.260;2023-03-26T01:10:52;94080.22;;;10.26;88.94
12785;BME280;6456;42.680;23.260;2023-03-26T01:13:28;94189.44;;;11.00;88.83
12785;BME280;6456;42.680;23.260;2023-03-26T01:15:57;94182.34;;;10.89;89.21
12785;BME280;6456;42.680;23.260;2023-03-26T01:18:29;94187.72;;;10.94;89.69
12785;BME280;6456;42.680;23.260;2023-03-26T01:21:00;94162.22;;;10.65;90.13
12785;BME280;6456;42.680;23.260;2023-03-26T01:23:39;94194.78;;;10.82;90.72
12785;BME280;6456;42.680;23.260;2023-03-26T01:26:15;94202.75;;;10.75;91.53
12785;BME280;6456;42.680;23.260;2023-03-26T01:28:49;94198.31;;;10.76;92.46
12785;BME280;6456;42.680;23.260;2023-03-26T01:31:22;94178.00;;;10.65;92.95
12785;BME280;6456;42.680;23.260;2023-03-26T01:33:57;94193.91;;;10.70;93.30
12785;BME280;6456;42.680;23.260;2023-03-26T01:36:32;94136.44;;;10.25;93.97
12785;BME280;6456;42.680;23.260;2023-03-26T01:39:06;94169.69;;;10.50;94.39
12785;BME280;6456;42.680;23.260;2023-03-26T01:41:41;94204.31;;;10.65;94.78
12785;BME280;6456;42.680;23.260;2023-03-26T01:44:13;94166.94;;;10.45;94.36
12785;BME280;6456;42.680;23.260;2023-03-26T01:46:42;94198.31;;;10.76;94.20
12785;BME280;6456;42.680;23.260;2023-03-26T01:49:10;94191.63;;;10.62;94.81
12785;BME280;6456;42.680;23.260;2023-03-26T01:51:40;94206.50;;;10.68;95.36
12785;BME280;6456;42.680;23.260;2023-03-26T01:54:12;94170.16;;;10.47;95.27
12785;BME280;6456;42.680;23.260;2023-03-26T01:56:48;94200.34;;;10.74;95.50
12785;BME280;6456;42.680;23.260;2023-03-26T01:59:34;94136.00;;;10.28;95.41
12785;BME280;6456;42.680;23.260;2023-03-26T02:02:10;94206.63;;;10.73;95.56
12785;BME280;6456;42.680;23.260;2023-03-26T02:04:43;94189.88;;;10.56;95.00
12785;BME280;6456;42.680;23.260;2023-03-26T02:07:16;94177.72;;;10.55;94.82
12785;BME280;6456;42.680;23.260;2023-03-26T02:09:49;94213.97;;;10.71;94.84
12785;BME280;6456;42.680;23.260;2023-03-26T02:12:20;94215.31;;;10.62;94.76
12785;BME280;6456;42.680;23.260;2023-03-26T02:14:48;94159.78;;;10.22;94.62
12785;BME280;6456;42.680;23.260;2023-03-26T02:17:15;94204.50;;;10.52;94.93
12785;BME280;6456;42.680;23.260;2023-03-26T02:19:43;94208.84;;;10.58;94.76
12785;BME280;6456;42.680;23.260;2023-03-26T02:22:12;94207.28;;;10.57;94.58
12785;BME280;6456;42.680;23.260;2023-03-26T02:24:39;94176.06;;;10.42;94.39
12785;BME280;6456;42.680;23.260;2023-03-26T02:27:07;94126.22;;;10.17;94.20
12785;BME280;6456;42.680;23.260;2023-03-26T02:29:35;94206.50;;;10.68;94.12
12785;BME280;6456;42.680;23.260;2023-03-26T02:32:04;94210.81;;;10.62;93.79
12785;BME280;6456;42.680;23.260;2023-03-26T02:34:31;94199.75;;;10.42;93.83
12785;BME280;6456;42.680;23.260;2023-03-26T02:36:58;94181.88;;;10.32;94.16
12785;BME280;6456;42.680;23.260;2023-03-26T02:39:25;94214.94;;;10.58;95.20
12785;BME280;6456;42.680;23.260;2023-03-26T02:41:52;94176.78;;;10.19;95.87
12785;BME280;6456;42.680;23.260;2023-03-26T02:44:18;94134.69;;;10.01;96.32
12785;BME280;6456;42.680;23.260;2023-03-26T02:46:47;94234.97;;;10.41;96.85
12785;BME280;6456;42.680;23.260;2023-03-26T02:49:14;94234.53;;;10.44;97.26
12785;BME280;6456;42.680;23.260;2023-03-26T02:51:41;94233.34;;;10.40;97.55
12785;BME280;6456;42.680;23.260;2023-03-26T02:54:07;94235.25;;;10.51;97.85
12785;BME280;6456;42.680;23.260;2023-03-26T02:56:34;94245.91;;;10.56;96.43
12785;BME280;6456;42.680;23.260;2023-03-26T02:59:01;94235.97;;;10.58;95.19
12785;BME280;6456;42.680;23.260;2023-03-26T03:01:28;94231.25;;;10.49;93.07
12785;BME280;6456;42.680;23.260;2023-03-26T03:04:00;94256.72;;;10.66;92.73
12785;BME280;6456;42.680;23.260;2023-03-26T03:06:28;94252.13;;;10.62;92.94
12785;BME280;6456;42.680;23.260;2023-03-26T03:08:57;94186.50;;;10.19;93.48
12785;BME280;6456;42.680;23.260;2023-03-26T03:11:24;94180.69;;;10.10;93.05
12785;BME280;6456;42.680;23.260;2023-03-26T03:13:51;94266.31;;;10.61;93.10
12785;BME280;6456;42.680;23.260;2023-03-26T03:16:18;94262.00;;;10.48;93.84
12785;BME280;6456;42.680;23.260;2023-03-26T03:18:45;94266.59;;;10.53;93.66
12785;BME280;6456;42.680;23.260;2023-03-26T03:21:19;94269.97;;;10.42;94.07
12785;BME280;6456;42.680;23.260;2023-03-26T03:23:47;94276.69;;;10.38;94.60
12785;BME280;6456;42.680;23.260;2023-03-26T03:26:15;94280.78;;;10.34;94.79
12785;BME280;6456;42.680;23.260;2023-03-26T03:28:46;94273.59;;;10.22;95.27
12785;BME280;6456;42.680;23.260;2023-03-26T03:31:13;94283.03;;;10.12;96.09
12785;BME280;6456;42.680;23.260;2023-03-26T03:33:40;94266.72;;;10.03;96.63
12785;BME280;6456;42.680;23.260;2023-03-26T03:36:08;94273.91;;;10.14;96.88
12785;BME280;6456;42.680;23.260;2023-03-26T03:38:37;94270.69;;;10.12;96.96
12785;BME280;6456;42.680;23.260;2023-03-26T03:41:05;94263.06;;;10.04;97.56
12785;BME280;6456;42.680;23.260;2023-03-26T03:43:32;94212.53;;;9.84;96.99
12785;BME280;6456;42.680;23.260;2023-03-26T03:45:59;94260.34;;;10.11;97.17
12785;BME280;6456;42.680;23.260;2023-03-26T03:48:26;94264.81;;;10.10;97.15
12785;BME280;6456;42.680;23.260;2023-03-26T03:50:53;94214.38;;;9.77;97.27
12785;BME280;6456;42.680;23.260;2023-03-26T03:53:21;94271.09;;;10.09;97.14
12785;BME280;6456;42.680;23.260;2023-03-26T03:55:52;94162.47;;;9.36;97.44
12785;BME280;6456;42.680;23.260;2023-03-26T03:58:20;94266.13;;;10.01;97.72
12785;BME280;6456;42.680;23.260;2023-03-26T04:00:47;94251.28;;;9.89;98.02
12785;BME280;6456;42.680;23.260;2023-03-26T04:03:15;94264.19;;;9.90;98.38
12785;BME280;6456;42.680;23.260;2023-03-26T04:05:42;94156.94;;;9.20;98.82
12785;BME280;6456;42.680;23.260;2023-03-26T04:08:14;94261.84;;;9.82;99.35
12785;BME280;6456;42.680;23.260;2023-03-26T04:10:42;94275.69;;;9.71;100.00
12785;BME280;6456;42.680;23.260;2023-03-26T04:13:11;94278.53;;;9.69;100.00
12785;BME280;6456;42.680;23.260;2023-03-26T04:15:39;94283.03;;;9.62;100.00
12785;BME280;6456;42.680;23.260;2023-03-26T04:18:06;94256.94;;;9.43;100.00
12785;BME280;6456;42.680;23.260;2023-03-26T04:20:35;94238.44;;;9.31;100.00
12785;BME280;6456;42.680;23.260;2023-03-26T04:23:03;94245.41;;;9.19;100.00
12785;BME280;6456;42.680;23.260;2023-03-26T04:25:30;94241.72;;;9.27;100.00
12785;BME280;6456;42.680;23.260;2023-03-26T04:27:59;94201.53;;;9.01;100.00
12785;BME280;6456;42.680;23.260;2023-03-26T04:30:33;94290.22;;;9.49;100.00
12785;BME280;6456;42.680;23.260;2023-03-26T04:33:00;94273.97;;;9.34;100.00
12785;BME280;6456;42.680;23.260;2023-03-26T04:35:31;94325.44;;;9.66;100.00
12785;BME280;6456;42.680;23.260;2023-03-26T04:38:00;94332.34;;;9.60;100.00
12785;BME280;6456;42.680;23.260;2023-03-26T04:40:31;94342.22;;;9.65;100.00
12785;BME280;6456;42.680;23.260;2023-03-26T04:43:03;94337.59;;;9.60;100.00
12785;BME280;6456;42.680;23.260;2023-03-26T04:45:33;94240.88;;;9.01;100.00
12785;BME280;6456;42.680;23.260;2023-03-26T04:48:00;94344.84;;;9.65;99.98
12785;BME280;6456;42.680;23.260;2023-03-26T04:50:27;94348.66;;;9.69;99.68
12785;BME280;6456;42.680;23.260;2023-03-26T04:52:54;94352.25;;;9.75;98.15
12785;BME280;6456;42.680;23.260;2023-03-26T04:55:24;94341.22;;;9.66;96.91
12785;BME280;6456;42.680;23.260;2023-03-26T04:57:55;94329.50;;;9.62;96.69
12785;BME280;6456;42.680;23.260;2023-03-26T05:00:24;94357.25;;;9.83;94.72
12785;BME280;6456;42.680;23.260;2023-03-26T05:02:53;94325.47;;;9.59;93.73
12785;BME280;6456;42.680;23.260;2023-03-26T05:05:22;94364.47;;;9.87;93.42
12785;BME280;6456;42.680;23.260;2023-03-26T05:08:14;94359.38;;;9.92;93.23
12785;BME280;6456;42.680;23.260;2023-03-26T05:10:59;94197.78;;;8.84;90.93
12785;BME280;6456;42.680;23.260;2023-03-26T05:13:26;94291.00;;;9.49;91.00
12785;BME280;6456;42.680;23.260;2023-03-26T05:15:52;94342.44;;;9.88;90.66
12785;BME280;6456;42.680;23.260;2023-03-26T05:18:21;94382.72;;;10.13;91.67
12785;BME280;6456;42.680;23.260;2023-03-26T05:20:48;94362.94;;;10.04;91.60
12785;BME280;6456;42.680;23.260;2023-03-26T05:23:15;94317.34;;;9.67;92.26
12785;BME280;6456;42.680;23.260;2023-03-26T05:25:41;94385.72;;;10.10;92.85
12785;BME280;6456;42.680;23.260;2023-03-26T05:28:09;94357.91;;;10.03;93.04
12785;BME280;6456;42.680;23.260;2023-03-26T05:33:28;94383.25;;;10.22;93.52
12785;BME280;6456;42.680;23.260;2023-03-26T05:35:59;94386.97;;;10.32;93.13
12785;BME280;6456;42.680;23.260;2023-03-26T05:38:27;94342.84;;;10.10;91.80
12785;BME280;6456;42.680;23.260;2023-03-26T05:40:57;94361.78;;;10.25;92.69
12785;BME280;6456;42.680;23.260;2023-03-26T05:43:24;94399.94;;;10.52;93.35
12785;BME280;6456;42.680;23.260;2023-03-26T05:45:51;94396.69;;;10.57;91.48
12785;BME280;6456;42.680;23.260;2023-03-26T05:48:18;94346.44;;;10.40;90.49
12785;BME280;6456;42.680;23.260;2023-03-26T05:50:48;94361.72;;;10.32;88.96
12785;BME280;6456;42.680;23.260;2023-03-26T05:53:15;94404.78;;;10.55;89.21
12785;BME280;6456;42.680;23.260;2023-03-26T05:55:43;94398.56;;;10.50;89.90
12785;BME280;6456;42.680;23.260;2023-03-26T05:58:11;94383.72;;;10.55;90.41
12785;BME280;6456;42.680;23.260;2023-03-26T06:00:38;94392.44;;;10.56;91.81
12785;BME280;6456;42.680;23.260;2023-03-26T06:03:05;94395.81;;;10.63;90.33
12785;BME280;6456;42.680;23.260;2023-03-26T06:05:37;94403.25;;;10.66;89.39
12785;BME280;6456;42.680;23.260;2023-03-26T06:08:08;94393.91;;;10.70;86.08
12785;BME280;6456;42.680;23.260;2023-03-26T06:10:37;94390.69;;;10.86;89.32
12785;BME280;6456;42.680;23.260;2023-03-26T06:13:04;94391.72;;;10.85;85.29
12785;BME280;6456;42.680;23.260;2023-03-26T06:15:30;94361.00;;;10.61;83.82
12785;BME280;6456;42.680;23.260;2023-03-26T06:17:57;94382.88;;;10.79;83.85
12785;BME280;6456;42.680;23.260;2023-03-26T06:20:24;94377.78;;;10.84;84.24
12785;BME280;6456;42.680;23.260;2023-03-26T06:22:51;94388.50;;;11.01;85.60
12785;BME280;6456;42.680;23.260;2023-03-26T06:25:19;94404.50;;;11.18;84.28
12785;BME280;6456;42.680;23.260;2023-03-26T06:27:46;94388.69;;;11.18;83.02
12785;BME280;6456;42.680;23.260;2023-03-26T06:30:13;94389.50;;;11.18;80.79
12785;BME280;6456;42.680;23.260;2023-03-26T06:32:40;94315.44;;;10.67;80.86
12785;BME280;6456;42.680;23.260;2023-03-26T06:35:07;94385.28;;;10.99;80.07
12785;BME280;6456;42.680;23.260;2023-03-26T06:37:35;94363.56;;;10.85;80.84
12785;BME280;6456;42.680;23.260;2023-03-26T06:40:02;94394.44;;;10.97;80.33
12785;BME280;6456;42.680;23.260;2023-03-26T06:42:31;94390.47;;;11.06;81.65
12785;BME280;6456;42.680;23.260;2023-03-26T06:44:58;94395.38;;;11.02;81.66
12785;BME280;6456;42.680;23.260;2023-03-26T06:47:25;94380.22;;;10.98;78.59
12785;BME280;6456;42.680;23.260;2023-03-26T06:49:52;94398.59;;;11.04;78.13
12785;BME280;6456;42.680;23.260;2023-03-26T06:52:19;94401.38;;;11.09;80.18
12785;BME280;6456;42.680;23.260;2023-03-26T06:54:46;94406.28;;;11.06;78.40
12785;BME280;6456;42.680;23.260;2023-03-26T06:57:12;94407.22;;;11.11;78.14
12785;BME280;6456;42.680;23.260;2023-03-26T06:59:41;94414.97;;;11.24;77.58
12785;BME280;6456;42.680;23.260;2023-03-26T07:02:08;94415.69;;;11.31;77.56
12785;BME280;6456;42.680;23.260;2023-03-26T07:04:36;94393.44;;;11.27;74.07
12785;BME280;6456;42.680;23.260;2023-03-26T07:07:03;94404.09;;;11.50;74.35
12785;BME280;6456;42.680;23.260;2023-03-26T07:09:30;94422.59;;;11.62;75.77
12785;BME280;6456;42.680;23.260;2023-03-26T07:11:57;94409.19;;;11.64;73.78
12785;BME280;6456;42.680;23.260;2023-03-26T07:14:24;94358.81;;;11.42;75.06
12785;BME280;6456;42.680;23.260;2023-03-26T07:16:53;94403.63;;;11.72;71.78
12785;BME280;6456;42.680;23.260;2023-03-26T07:19:20;94399.00;;;11.67;75.10
12785;BME280;6456;42.680;23.260;2023-03-26T07:21:47;94400.13;;;11.59;73.96
12785;BME280;6456;42.680;23.260;2023-03-26T07:24:15;94402.56;;;11.43;76.08
12785;BME280;6456;42.680;23.260;2023-03-26T07:26:50;94400.06;;;11.48;76.36
12785;BME280;6456;42.680;23.260;2023-03-26T07:29:26;94395.38;;;11.50;75.87
12785;BME280;6456;42.680;23.260;2023-03-26T07:32:02;94337.06;;;11.17;75.32
12785;BME280;6456;42.680;23.260;2023-03-26T07:34:44;94384.63;;;11.51;70.84
12785;BME280;6456;42.680;23.260;2023-03-26T07:37:19;94376.28;;;11.54;71.18
12785;BME280;6456;42.680;23.260;2023-03-26T07:39:53;94400.00;;;11.54;70.15
12785;BME280;6456;42.680;23.260;2023-03-26T07:42:37;94346.78;;;11.34;72.91
12785;BME280;6456;42.680;23.260;2023-03-26T07:45:18;94398.38;;;11.53;71.98
12785;BME280;6456;42.680;23.260;2023-03-26T07:47:48;94384.53;;;11.58;73.01
12785;BME280;6456;42.680;23.260;2023-03-26T07:50:19;94383.00;;;11.69;73.51
12785;BME280;6456;42.680;23.260;2023-03-26T07:52:49;94362.63;;;11.57;71.11
12785;BME280;6456;42.680;23.260;2023-03-26T07:55:17;94384.28;;;11.78;63.90
12785;BME280;6456;42.680;23.260;2023-03-26T07:57:53;94380.63;;;11.79;62.00
12785;BME280;6456;42.680;23.260;2023-03-26T08:00:24;94381.13;;;11.87;61.83
12785;BME280;6456;42.680;23.260;2023-03-26T08:03:07;94380.88;;;11.89;62.33
12785;BME280;6456;42.680;23.260;2023-03-26T08:05:42;94355.88;;;11.80;62.36
12785;BME280;6456;42.680;23.260;2023-03-26T08:08:16;94368.25;;;11.91;59.81
12785;BME280;6456;42.680;23.260;2023-03-26T08:10:56;94369.50;;;11.88;62.17
12785;BME280;6456;42.680;23.260;2023-03-26T08:13:29;94218.75;;;10.92;63.07
12785;BME280;6456;42.680;23.260;2023-03-26T08:16:06;94343.00;;;11.72;61.86
12785;BME280;6456;42.680;23.260;2023-03-26T08:18:44;94381.69;;;12.01;61.02
12785;BME280;6456;42.680;23.260;2023-03-26T08:21:17;94372.97;;;12.00;60.37
12785;BME280;6456;42.680;23.260;2023-03-26T08:23:54;94341.41;;;11.71;59.20
12785;BME280;6456;42.680;23.260;2023-03-26T08:26:29;94379.06;;;12.01;61.67
12785;BME280;6456;42.680;23.260;2023-03-26T08:29:05;94362.78;;;12.04;60.88
12785;BME280;6456;42.680;23.260;2023-03-26T08:31:36;94381.63;;;12.19;59.30
12785;BME280;6456;42.680;23.260;2023-03-26T08:34:09;94386.09;;;12.18;61.25
12785;BME280;6456;42.680;23.260;2023-03-26T08:36:36;94324.34;;;11.73;59.26
12785;BME280;6456;42.680;23.260;2023-03-26T08:39:03;94403.41;;;12.14;60.31
12785;BME280;6456;42.680;23.260;2023-03-26T08:42:08;94379.44;;;12.28;59.66
12785;BME280;6456;42.680;23.260;2023-03-26T08:45:11;94374.06;;;12.34;56.28
12785;BME280;6456;42.680;23.260;2023-03-26T08:54:21;94314.97;;;12.00;56.13
12785;BME280;6456;42.680;23.260;2023-03-26T08:57:05;94383.59;;;12.47;55.46
12785;BME280;6456;42.680;23.260;2023-03-26T09:03:07;94360.84;;;12.46;58.03
12785;BME280;6456;42.680;23.260;2023-03-26T09:05:53;94378.66;;;12.62;58.11
12785;BME280;6456;42.680;23.260;2023-03-26T09:08:54;94356.94;;;12.71;53.42
12785;BME280;6456;42.680;23.260;2023-03-26T09:12:00;94382.44;;;12.77;53.61
12785;BME280;6456;42.680;23.260;2023-03-26T09:20:47;94360.72;;;12.87;52.01
12785;BME280;6456;42.680;23.260;2023-03-26T09:23:45;94379.53;;;12.91;49.83
12785;BME280;6456;42.680;23.260;2023-03-26T09:26:28;94336.84;;;12.70;50.23
12785;BME280;6456;42.680;23.260;2023-03-26T09:29:42;94364.94;;;13.00;52.47
12785;BME280;6456;42.680;23.260;2023-03-26T09:35:42;94336.75;;;12.77;51.72
12785;BME280;6456;42.680;23.260;2023-03-26T09:38:34;94351.53;;;12.90;55.01
12785;BME280;6456;42.680;23.260;2023-03-26T09:41:07;94347.22;;;13.00;55.61
12785;BME280;6456;42.680;23.260;2023-03-26T09:43:56;94335.47;;;12.79;52.79
12785;BME280;6456;42.680;23.260;2023-03-26T09:46:33;94358.72;;;13.06;53.80
12785;BME280;6456;42.680;23.260;2023-03-26T09:49:41;94369.75;;;13.14;52.16
12785;BME280;6456;42.680;23.260;2023-03-26T09:55:17;94312.56;;;13.08;50.35
12785;BME280;6456;42.680;23.260;2023-03-26T09:57:59;94295.44;;;13.11;51.72
12785;BME280;6456;42.680;23.260;2023-03-26T10:00:35;94333.88;;;13.30;49.74
12785;BME280;6456;42.680;23.260;2023-03-26T10:03:25;94319.22;;;13.39;50.51
12785;BME280;6456;42.680;23.260;2023-03-26T10:09:12;94234.56;;;13.06;48.85
12785;BME280;6456;42.680;23.260;2023-03-26T10:11:57;94305.34;;;13.60;47.27
12785;BME280;6456;42.680;23.260;2023-03-26T10:14:31;94302.78;;;13.65;49.66
12785;BME280;6456;42.680;23.260;2023-03-26T10:17:12;94305.34;;;13.77;45.69
12785;BME280;6456;42.680;23.260;2023-03-26T10:19:57;94223.63;;;13.42;48.32
12785;BME280;6456;42.680;23.260;2023-03-26T10:22:41;94298.69;;;13.91;44.27
12785;BME280;6456;42.680;23.260;2023-03-26T10:28:17;94266.50;;;13.77;44.22
12785;BME280;6456;42.680;23.260;2023-03-26T10:31:06;94301.44;;;13.96;44.43
12785;BME280;6456;42.680;23.260;2023-03-26T10:33:42;94264.19;;;13.97;43.39
12785;BME280;6456;42.680;23.260;2023-03-26T10:36:26;94276.34;;;13.98;42.03
12785;BME280;6456;42.680;23.260;2023-03-26T10:42:12;94275.47;;;14.09;39.84
12785;BME280;6456;42.680;23.260;2023-03-26T10:44:56;94228.28;;;13.85;40.05
12785;BME280;6456;42.680;23.260;2023-03-26T10:47:40;94259.75;;;14.20;40.08
12785;BME280;6456;42.680;23.260;2023-03-26T10:50:26;94251.72;;;14.31;39.64
12785;BME280;6456;42.680;23.260;2023-03-26T10:53:03;94259.75;;;14.20;38.24
12785;BME280;6456;42.680;23.260;2023-03-26T10:55:35;94210.00;;;13.83;36.71
12785;BME280;6456;42.680;23.260;2023-03-26T10:58:10;94246.28;;;14.38;36.70
12785;BME280;6456;42.680;23.260;2023-03-26T11:00:45;94250.22;;;14.35;34.78
12785;BME280;6456;42.680;23.260;2023-03-26T11:03:36;94231.25;;;14.27;36.60
12785;BME280;6456;42.680;23.260;2023-03-26T11:06:16;94232.03;;;14.44;35.47
12785;BME280;6456;42.680;23.260;2023-03-26T11:08:54;94226.69;;;14.39;35.18
12785;BME280;6456;42.680;23.260;2023-03-26T11:11:28;94237.81;;;14.41;36.76
12785;BME280;6456;42.680;23.260;2023-03-26T11:14:02;94225.22;;;14.48;35.71
12785;BME280;6456;42.680;23.260;2023-03-26T11:16:39;94233.59;;;14.61;37.14
12785;BME280;6456;42.680;23.260;2023-03-26T11:19:16;94196.66;;;14.50;37.47
12785;BME280;6456;42.680;23.260;2023-03-26T11:21:51;94222.16;;;14.77;34.69
12785;BME280;6456;42.680;23.260;2023-03-26T11:24:39;94219.28;;;14.84;36.40
12785;BME280;6456;42.680;23.260;2023-03-26T11:27:14;94212.16;;;14.85;37.37
12785;BME280;6456;42.680;23.260;2023-03-26T11:29:51;94105.78;;;14.23;34.35
12785;BME280;6456;42.680;23.260;2023-03-26T11:32:36;94155.66;;;14.52;37.05
12785;BME280;6456;42.680;23.260;2023-03-26T11:35:16;94146.34;;;14.50;35.10
12785;BME280;6456;42.680;23.260;2023-03-26T11:37:50;94197.72;;;14.97;36.11
12785;BME280;6456;42.680;23.260;2023-03-26T11:40:24;94135.38;;;14.63;34.41
12785;BME280;6456;42.680;23.260;2023-03-26T11:42:58;94179.19;;;14.97;33.43
12785;BME280;6456;42.680;23.260;2023-03-26T11:45:28;94114.59;;;14.50;33.17
12785;BME280;6456;42.680;23.260;2023-03-26T11:48:03;94160.88;;;14.96;35.69
12785;BME280;6456;42.680;23.260;2023-03-26T11:50:37;94131.94;;;14.89;35.03
12785;BME280;6456;42.680;23.260;2023-03-26T11:53:14;94144.47;;;14.99;35.63
12785;BME280;6456;42.680;23.260;2023-03-26T11:55:46;94166.66;;;15.19;33.81
12785;BME280;6456;42.680;23.260;2023-03-26T11:58:23;94138.69;;;15.02;36.51
12785;BME280;6456;42.680;23.260;2023-03-26T12:00:53;94111.00;;;14.88;33.39
12785;BME280;6456;42.680;23.260;2023-03-26T12:03:20;94086.41;;;14.92;33.12
12785;BME280;6456;42.680;23.260;2023-03-26T12:05:53;94145.94;;;15.43;32.29
12785;BME280;6456;42.680;23.260;2023-03-26T12:08:30;94137.72;;;15.45;33.63
12785;BME280;6456;42.680;23.260;2023-03-26T12:11:02;94153.16;;;15.48;32.95
12785;BME280;6456;42.680;23.260;2023-03-26T12:13:34;94084.69;;;15.08;31.99
12785;BME280;6456;42.680;23.260;2023-03-26T12:16:08;94072.25;;;15.13;33.75
12785;BME280;6456;42.680;23.260;2023-03-26T12:18:38;94129.88;;;15.55;33.05
12785;BME280;6456;42.680;23.260;2023-03-26T12:21:07;94125.69;;;15.64;31.67
12785;BME280;6456;42.680;23.260;2023-03-26T12:23:53;94069.69;;;15.23;31.65
12785;BME280;6456;42.680;23.260;2023-03-26T12:26:35;94013.09;;;14.98;31.00
12785;BME280;6456;42.680;23.260;2023-03-26T12:29:09;94022.41;;;15.05;30.66
12785;BME280;6456;42.680;23.260;2023-03-26T12:31:49;94113.53;;;15.68;28.73
12785;BME280;6456;42.680;23.260;2023-03-26T12:34:29;94095.75;;;15.68;30.71
12785;BME280;6456;42.680;23.260;2023-03-26T12:37:01;93995.28;;;14.93;28.66
12785;BME280;6456;42.680;23.260;2023-03-26T12:39:35;94079.84;;;15.73;29.80
12785;BME280;6456;42.680;23.260;2023-03-26T12:42:04;94092.91;;;15.80;29.96
12785;BME280;6456;42.680;23.260;2023-03-26T12:44:35;94079.63;;;15.75;26.02
12785;BME280;6456;42.680;23.260;2023-03-26T12:47:12;94061.06;;;15.75;26.69
12785;BME280;6456;42.680;23.260;2023-03-26T12:49:40;94082.78;;;15.72;28.54
12785;BME280;6456;42.680;23.260;2023-03-26T12:52:29;94044.22;;;15.54;27.29
12785;BME280;6456;42.680;23.260;2023-03-26T12:55:14;94058.34;;;15.65;27.23
12785;BME280;6456;42.680;23.260;2023-03-26T12:57:51;94098.78;;;15.87;25.84
12785;BME280;6456;42.680;23.260;2023-03-26T13:00:27;94098.47;;;15.83;26.83
12785;BME280;6456;42.680;23.260;2023-03-26T13:03:14;94083.41;;;15.94;27.29
12785;BME280;6456;42.680;23.260;2023-03-26T13:05:56;94091.91;;;15.96;27.20
12785;BME280;6456;42.680;23.260;2023-03-26T13:08:38;94081.88;;;16.03;25.98
12785;BME280;6456;42.680;23.260;2023-03-26T13:11:22;94061.66;;;15.92;26.30
12785;BME280;6456;42.680;23.260;2023-03-26T13:14:19;94058.78;;;16.03;24.74
12785;BME280;6456;42.680;23.260;2023-03-26T13:16:54;94077.66;;;16.12;25.43
12785;BME280;6456;42.680;23.260;2023-03-26T13:19:29;94062.03;;;16.11;24.05
12785;BME280;6456;42.680;23.260;2023-03-26T13:22:12;94066.00;;;16.13;25.55
12785;BME280;6456;42.680;23.260;2023-03-26T13:24:52;94081.13;;;16.13;26.33
12785;BME280;6456;42.680;23.260;2023-03-26T13:27:35;94063.06;;;16.10;24.17
12785;BME280;6456;42.680;23.260;2023-03-26T13:30:13;94046.31;;;16.04;25.69
12785;BME280;6456;42.680;23.260;2023-03-26T13:32:53;94052.75;;;16.13;26.25
12785;BME280;6456;42.680;23.260;2023-03-26T13:35:29;94056.91;;;15.99;24.41
12785;BME280;6456;42.680;23.260;2023-03-26T13:38:03;94055.41;;;16.18;25.15
12785;BME280;6456;42.680;23.260;2023-03-26T13:40:40;94031.72;;;16.01;23.83
12785;BME280;6456;42.680;23.260;2023-03-26T13:43:28;94047.47;;;16.23;24.20
12785;BME280;6456;42.680;23.260;2023-03-26T13:46:06;94039.19;;;16.10;26.19
12785;BME280;6456;42.680;23.260;2023-03-26T13:48:41;94047.72;;;16.27;24.71
12785;BME280;6456;42.680;23.260;2023-03-26T13:51:16;94026.22;;;16.18;26.19
12785;BME280;6456;42.680;23.260;2023-03-26T13:53:51;94044.28;;;16.26;24.71
12785;BME280;6456;42.680;23.260;2023-03-26T13:56:30;93993.47;;;15.87;24.31
12785;BME280;6456;42.680;23.260;2023-03-26T13:59:02;93968.47;;;15.78;24.66
12785;BME280;6456;42.680;23.260;2023-03-26T14:01:35;93896.13;;;15.26;26.68
12785;BME280;6456;42.680;23.260;2023-03-26T14:04:14;93934.63;;;15.43;25.66
12785;BME280;6456;42.680;23.260;2023-03-26T14:06:47;94036.28;;;16.16;25.58